sensor_id;sensor_type;location;lat;lon;timestamp;P1;durP1;ratioP1;P2;durP2;ratioP2
8622;SDS011;4349;47.552;8.904;2024-02-14T00:01:07;3.60;;;3.30;;
8622;SDS011;4349;47.552;8.904;2024-02-14T00:03:36;3.30;;;3.10;;
8622;SDS011;4349;47.552;8.904;2024-02-14T00:06:04;3.13;;;2.97;;
8622;SDS011;4349;47.552;8.904;2024-02-14T00:08:32;3.77;;;3.57;;
8622;SDS011;4349;47.552;8.904;2024-02-14T00:11:01;3.97;;;3.67;;
8622;SDS011;4349;47.552;8.904;2024-02-14T00:13:29;3.70;;;3.40;;
8622;SDS011;4349;47.552;8.904;2024-02-14T00:16:00;4.33;;;3.70;;
8622;SDS011;4349;47.552;8.904;2024-02-14T00:18:28;4.10;;;3.77;;
8622;SDS011;4349;47.552;8.904;2024-02-14T00:20:57;3.63;;;3.30;;
8622;SDS011;4349;47.552;8.904;2024-02-14T00:23:24;3.40;;;3.20;;
8622;SDS011;4349;47.552;8.904;2024-02-14T00:25:52;3.50;;;3.03;;
8622;SDS011;4349;47.552;8.904;2024-02-14T00:28:21;3.80;;;3.40;;
8622;SDS011;4349;47.552;8.904;2024-02-14T00:30:50;3.47;;;3.27;;
8622;SDS011;4349;47.552;8.904;2024-02-14T00:33:17;3.63;;;3.33;;
8622;SDS011;4349;47.552;8.904;2024-02-14T00:35:46;3.07;;;2.87;;
8622;SDS011;4349;47.552;8.904;2024-02-14T00:38:14;3.37;;;3.17;;
8622;SDS011;4349;47.552;8.904;2024-02-14T00:40:42;4.53;;;3.20;;
8622;SDS011;4349;47.552;8.904;2024-02-14T00:43:09;3.40;;;3.10;;
8622;SDS011;4349;47.552;8.904;2024-02-14T00:45:39;3.60;;;3.30;;
8622;SDS011;4349;47.552;8.904;2024-02-14T00:48:06;6.57;;;3.40;;
8622;SDS011;4349;47.552;8.904;2024-02-14T00:50:34;3.80;;;3.50;;
8622;SDS011;4349;47.552;8.904;2024-02-14T00:53:04;3.60;;;3.40;;
8622;SDS011;4349;47.552;8.904;2024-02-14T00:55:31;2.80;;;2.70;;
8622;SDS011;4349;47.552;8.904;2024-02-14T00:57:59;3.37;;;3.07;;
8622;SDS011;4349;47.552;8.904;2024-02-14T01:00:26;3.57;;;3.30;;
8622;SDS011;4349;47.552;8.904;2024-02-14T01:02:55;3.07;;;2.87;;
8622;SDS011;4349;47.552;8.904;2024-02-14T01:05:24;3.53;;;3.23;;
8622;SDS011;4349;47.552;8.904;2024-02-14T01:07:51;3.40;;;3.20;;
8622;SDS011;4349;47.552;8.904;2024-02-14T01:10:20;4.33;;;3.10;;
8622;SDS011;4349;47.552;8.904;2024-02-14T01:12:48;3.50;;;3.20;;
8622;SDS011;4349;47.552;8.904;2024-02-14T01:15:15;3.77;;;3.57;;
8622;SDS011;4349;47.552;8.904;2024-02-14T01:17:43;3.93;;;3.73;;
8622;SDS011;4349;47.552;8.904;2024-02-14T01:20:15;3.80;;;3.57;;
8622;SDS011;4349;47.552;8.904;2024-02-14T01:22:42;4.07;;;3.80;;
8622;SDS011;4349;47.552;8.904;2024-02-14T01:25:11;3.50;;;3.30;;
8622;SDS011;4349;47.552;8.904;2024-02-14T01:27:38;4.10;;;3.80;;
8622;SDS011;4349;47.552;8.904;2024-02-14T01:30:07;3.93;;;3.60;;
8622;SDS011;4349;47.552;8.904;2024-02-14T01:32:35;3.50;;;3.30;;
8622;SDS011;4349;47.552;8.904;2024-02-14T01:35:02;3.87;;;3.60;;
8622;SDS011;4349;47.552;8.904;2024-02-14T01:37:31;3.03;;;2.93;;
8622;SDS011;4349;47.552;8.904;2024-02-14T01:39:59;3.50;;;3.30;;
8622;SDS011;4349;47.552;8.904;2024-02-14T01:42:26;3.97;;;3.67;;
8622;SDS011;4349;47.552;8.904;2024-02-14T01:44:54;3.33;;;3.13;;
8622;SDS011;4349;47.552;8.904;2024-02-14T01:47:22;3.30;;;3.10;;
8622;SDS011;4349;47.552;8.904;2024-02-14T01:49:49;3.90;;;3.60;;
8622;SDS011;4349;47.552;8.904;2024-02-14T01:52:17;3.57;;;3.27;;
8622;SDS011;4349;47.552;8.904;2024-02-14T01:54:46;3.33;;;3.13;;
8622;SDS011;4349;47.552;8.904;2024-02-14T01:57:14;3.30;;;3.10;;
8622;SDS011;4349;47.552;8.904;2024-02-14T01:59:42;3.93;;;3.20;;
8622;SDS011;4349;47.552;8.904;2024-02-14T02:02:10;3.23;;;3.03;;
8622;SDS011;4349;47.552;8.904;2024-02-14T02:04:38;3.60;;;3.37;;
8622;SDS011;4349;47.552;8.904;2024-02-14T02:07:05;3.40;;;3.20;;
8622;SDS011;4349;47.552;8.904;2024-02-14T02:09:34;3.40;;;3.17;;
8622;SDS011;4349;47.552;8.904;2024-02-14T02:12:03;3.20;;;3.00;;
8622;SDS011;4349;47.552;8.904;2024-02-14T02:14:34;3.67;;;3.47;;
8622;SDS011;4349;47.552;8.904;2024-02-14T02:17:02;3.53;;;3.30;;
8622;SDS011;4349;47.552;8.904;2024-02-14T02:19:34;3.87;;;3.50;;
8622;SDS011;4349;47.552;8.904;2024-02-14T02:22:02;3.43;;;3.13;;
8622;SDS011;4349;47.552;8.904;2024-02-14T02:24:32;3.40;;;3.20;;
8622;SDS011;4349;47.552;8.904;2024-02-14T02:26:59;3.43;;;3.20;;
8622;SDS011;4349;47.552;8.904;2024-02-14T02:29:27;3.63;;;3.40;;
8622;SDS011;4349;47.552;8.904;2024-02-14T02:31:55;3.47;;;3.27;;
8622;SDS011;4349;47.552;8.904;2024-02-14T02:34:22;2.80;;;2.70;;
8622;SDS011;4349;47.552;8.904;2024-02-14T02:36:50;3.67;;;3.30;;
8622;SDS011;4349;47.552;8.904;2024-02-14T02:39:18;3.13;;;2.93;;
8622;SDS011;4349;47.552;8.904;2024-02-14T02:41:47;3.13;;;3.03;;
8622;SDS011;4349;47.552;8.904;2024-02-14T02:44:15;3.70;;;3.50;;
8622;SDS011;4349;47.552;8.904;2024-02-14T02:46:43;3.80;;;3.50;;
8622;SDS011;4349;47.552;8.904;2024-02-14T02:49:12;4.27;;;4.07;;
8622;SDS011;4349;47.552;8.904;2024-02-14T02:51:40;4.00;;;3.80;;
8622;SDS011;4349;47.552;8.904;2024-02-14T02:54:08;3.90;;;3.60;;
8622;SDS011;4349;47.552;8.904;2024-02-14T02:56:37;4.40;;;4.10;;
8622;SDS011;4349;47.552;8.904;2024-02-14T02:59:06;3.83;;;3.43;;
8622;SDS011;4349;47.552;8.904;2024-02-14T03:01:37;4.23;;;3.90;;
8622;SDS011;4349;47.552;8.904;2024-02-14T03:04:04;4.07;;;3.77;;
8622;SDS011;4349;47.552;8.904;2024-02-14T03:06:33;3.87;;;3.57;;
8622;SDS011;4349;47.552;8.904;2024-02-14T03:09:01;3.97;;;3.70;;
8622;SDS011;4349;47.552;8.904;2024-02-14T03:11:29;3.63;;;3.30;;
8622;SDS011;4349;47.552;8.904;2024-02-14T03:13:56;3.50;;;3.20;;
8622;SDS011;4349;47.552;8.904;2024-02-14T03:16:25;4.10;;;3.80;;
8622;SDS011;4349;47.552;8.904;2024-02-14T03:18:53;3.90;;;3.60;;
8622;SDS011;4349;47.552;8.904;2024-02-14T03:21:21;3.87;;;3.57;;
8622;SDS011;4349;47.552;8.904;2024-02-14T03:23:49;3.30;;;3.00;;
8622;SDS011;4349;47.552;8.904;2024-02-14T03:26:16;2.70;;;2.60;;
8622;SDS011;4349;47.552;8.904;2024-02-14T03:28:44;2.80;;;2.63;;
8622;SDS011;4349;47.552;8.904;2024-02-14T03:31:12;2.40;;;2.30;;
8622;SDS011;4349;47.552;8.904;2024-02-14T03:33:42;3.70;;;3.30;;
8622;SDS011;4349;47.552;8.904;2024-02-14T03:36:10;4.07;;;3.70;;
8622;SDS011;4349;47.552;8.904;2024-02-14T03:38:37;4.40;;;4.10;;
8622;SDS011;4349;47.552;8.904;2024-02-14T03:41:06;4.27;;;3.87;;
8622;SDS011;4349;47.552;8.904;2024-02-14T03:43:34;4.67;;;4.37;;
8622;SDS011;4349;47.552;8.904;2024-02-14T03:46:01;4.20;;;4.00;;
8622;SDS011;4349;47.552;8.904;2024-02-14T03:48:29;3.93;;;3.67;;
8622;SDS011;4349;47.552;8.904;2024-02-14T03:50:58;3.70;;;3.50;;
8622;SDS011;4349;47.552;8.904;2024-02-14T03:53:26;3.87;;;3.53;;
8622;SDS011;4349;47.552;8.904;2024-02-14T03:55:54;3.03;;;2.93;;
8622;SDS011;4349;47.552;8.904;2024-02-14T03:58:21;2.90;;;2.70;;
8622;SDS011;4349;47.552;8.904;2024-02-14T04:00:50;2.77;;;2.57;;
8622;SDS011;4349;47.552;8.904;2024-02-14T04:03:18;3.00;;;2.80;;
8622;SDS011;4349;47.552;8.904;2024-02-14T04:05:45;3.07;;;2.80;;
8622;SDS011;4349;47.552;8.904;2024-02-14T04:08:15;4.13;;;3.77;;
8622;SDS011;4349;47.552;8.904;2024-02-14T04:10:44;4.03;;;3.70;;
8622;SDS011;4349;47.552;8.904;2024-02-14T04:13:12;4.17;;;3.83;;
8622;SDS011;4349;47.552;8.904;2024-02-14T04:15:40;4.33;;;3.93;;
8622;SDS011;4349;47.552;8.904;2024-02-14T04:18:09;4.10;;;3.80;;
8622;SDS011;4349;47.552;8.904;2024-02-14T04:20:36;3.77;;;3.43;;
8622;SDS011;4349;47.552;8.904;2024-02-14T04:23:04;3.33;;;3.03;;
8622;SDS011;4349;47.552;8.904;2024-02-14T04:25:35;3.27;;;3.07;;
8622;SDS011;4349;47.552;8.904;2024-02-14T04:28:02;2.93;;;2.80;;
8622;SDS011;4349;47.552;8.904;2024-02-14T04:30:30;2.50;;;2.40;;
8622;SDS011;4349;47.552;8.904;2024-02-14T04:32:57;3.00;;;2.80;;
8622;SDS011;4349;47.552;8.904;2024-02-14T04:35:25;3.10;;;2.80;;
8622;SDS011;4349;47.552;8.904;2024-02-14T04:37:53;2.60;;;2.40;;
8622;SDS011;4349;47.552;8.904;2024-02-14T04:40:21;1.97;;;1.87;;
8622;SDS011;4349;47.552;8.904;2024-02-14T04:42:50;2.50;;;2.30;;
8622;SDS011;4349;47.552;8.904;2024-02-14T04:45:18;2.20;;;2.10;;
8622;SDS011;4349;47.552;8.904;2024-02-14T04:47:46;2.37;;;2.27;;
8622;SDS011;4349;47.552;8.904;2024-02-14T04:50:14;2.60;;;2.40;;
8622;SDS011;4349;47.552;8.904;2024-02-14T04:52:41;2.57;;;2.43;;
8622;SDS011;4349;47.552;8.904;2024-02-14T04:55:09;2.10;;;2.00;;
8622;SDS011;4349;47.552;8.904;2024-02-14T04:57:38;2.77;;;2.33;;
8622;SDS011;4349;47.552;8.904;2024-02-14T05:00:07;2.20;;;2.00;;
8622;SDS011;4349;47.552;8.904;2024-02-14T05:02:36;2.20;;;2.10;;
8622;SDS011;4349;47.552;8.904;2024-02-14T05:05:04;2.40;;;2.20;;
8622;SDS011;4349;47.552;8.904;2024-02-14T05:07:32;1.93;;;1.83;;
8622;SDS011;4349;47.552;8.904;2024-02-14T05:10:00;3.50;;;3.30;;
8622;SDS011;4349;47.552;8.904;2024-02-14T05:12:28;2.70;;;2.60;;
8622;SDS011;4349;47.552;8.904;2024-02-14T05:14:55;2.30;;;2.10;;
8622;SDS011;4349;47.552;8.904;2024-02-14T05:17:25;2.03;;;2.03;;
8622;SDS011;4349;47.552;8.904;2024-02-14T05:19:52;2.20;;;2.10;;
8622;SDS011;4349;47.552;8.904;2024-02-14T05:22:20;3.00;;;2.00;;
8622;SDS011;4349;47.552;8.904;2024-02-14T05:24:48;3.00;;;2.43;;
8622;SDS011;4349;47.552;8.904;2024-02-14T05:27:16;3.33;;;3.03;;
8622;SDS011;4349;47.552;8.904;2024-02-14T05:29:43;3.30;;;3.10;;
8622;SDS011;4349;47.552;8.904;2024-02-14T05:32:11;3.20;;;3.00;;
8622;SDS011;4349;47.552;8.904;2024-02-14T05:34:40;3.47;;;3.27;;
8622;SDS011;4349;47.552;8.904;2024-02-14T05:37:08;3.30;;;3.00;;
8622;SDS011;4349;47.552;8.904;2024-02-14T05:39:35;3.80;;;3.50;;
8622;SDS011;4349;47.552;8.904;2024-02-14T05:42:03;3.80;;;3.50;;
8622;SDS011;4349;47.552;8.904;2024-02-14T05:44:32;3.90;;;3.60;;
8622;SDS011;4349;47.552;8.904;2024-02-14T05:46:59;3.40;;;3.20;;
8622;SDS011;4349;47.552;8.904;2024-02-14T05:49:27;3.40;;;3.20;;
8622;SDS011;4349;47.552;8.904;2024-02-14T05:51:56;3.87;;;3.67;;
8622;SDS011;4349;47.552;8.904;2024-02-14T05:54:24;3.60;;;3.30;;
8622;SDS011;4349;47.552;8.904;2024-02-14T05:56:52;3.47;;;3.20;;
8622;SDS011;4349;47.552;8.904;2024-02-14T05:59:19;3.97;;;3.40;;
8622;SDS011;4349;47.552;8.904;2024-02-14T06:01:47;3.60;;;3.30;;
8622;SDS011;4349;47.552;8.904;2024-02-14T06:04:15;3.47;;;3.17;;
8622;SDS011;4349;47.552;8.904;2024-02-14T06:06:42;3.10;;;2.90;;
8622;SDS011;4349;47.552;8.904;2024-02-14T06:09:11;3.40;;;3.10;;
8622;SDS011;4349;47.552;8.904;2024-02-14T06:11:39;3.00;;;2.80;;
8622;SDS011;4349;47.552;8.904;2024-02-14T06:14:07;3.13;;;2.87;;
8622;SDS011;4349;47.552;8.904;2024-02-14T06:16:34;2.93;;;2.70;;
8622;SDS011;4349;47.552;8.904;2024-02-14T06:19:02;2.70;;;2.60;;
8622;SDS011;4349;47.552;8.904;2024-02-14T06:21:31;2.60;;;2.50;;
8622;SDS011;4349;47.552;8.904;2024-02-14T06:23:59;2.87;;;2.70;;
8622;SDS011;4349;47.552;8.904;2024-02-14T06:26:28;2.77;;;2.53;;
8622;SDS011;4349;47.552;8.904;2024-02-14T06:28:56;3.03;;;2.83;;
8622;SDS011;4349;47.552;8.904;2024-02-14T06:31:24;2.83;;;2.53;;
8622;SDS011;4349;47.552;8.904;2024-02-14T06:33:51;2.80;;;2.60;;
8622;SDS011;4349;47.552;8.904;2024-02-14T06:36:19;2.60;;;2.30;;
8622;SDS011;4349;47.552;8.904;2024-02-14T06:38:47;2.40;;;2.30;;
8622;SDS011;4349;47.552;8.904;2024-02-14T06:41:15;2.40;;;2.30;;
8622;SDS011;4349;47.552;8.904;2024-02-14T06:43:44;2.17;;;2.07;;
8622;SDS011;4349;47.552;8.904;2024-02-14T06:46:12;3.83;;;3.37;;
8622;SDS011;4349;47.552;8.904;2024-02-14T06:48:40;3.83;;;3.13;;
8622;SDS011;4349;47.552;8.904;2024-02-14T06:51:07;3.50;;;3.20;;
8622;SDS011;4349;47.552;8.904;2024-02-14T06:53:35;3.03;;;2.90;;
8622;SDS011;4349;47.552;8.904;2024-02-14T06:56:03;2.63;;;2.50;;
8622;SDS011;4349;47.552;8.904;2024-02-14T06:58:31;2.60;;;2.40;;
8622;SDS011;4349;47.552;8.904;2024-02-14T07:00:59;2.47;;;2.37;;
8622;SDS011;4349;47.552;8.904;2024-02-14T07:03:27;2.60;;;2.40;;
8622;SDS011;4349;47.552;8.904;2024-02-14T07:05:55;3.00;;;2.80;;
8622;SDS011;4349;47.552;8.904;2024-02-14T07:08:22;3.10;;;2.90;;
8622;SDS011;4349;47.552;8.904;2024-02-14T07:10:52;2.80;;;2.60;;
8622;SDS011;4349;47.552;8.904;2024-02-14T07:13:20;2.67;;;2.57;;
8622;SDS011;4349;47.552;8.904;2024-02-14T07:15:47;2.30;;;2.20;;
8622;SDS011;4349;47.552;8.904;2024-02-14T07:18:16;2.67;;;2.47;;
8622;SDS011;4349;47.552;8.904;2024-02-14T07:20:44;2.90;;;2.73;;
8622;SDS011;4349;47.552;8.904;2024-02-14T07:23:12;3.30;;;3.00;;
8622;SDS011;4349;47.552;8.904;2024-02-14T07:25:40;3.83;;;2.80;;
8622;SDS011;4349;47.552;8.904;2024-02-14T07:28:07;4.73;;;3.83;;
8622;SDS011;4349;47.552;8.904;2024-02-14T07:30:35;3.77;;;3.10;;
8622;SDS011;4349;47.552;8.904;2024-02-14T07:33:03;3.20;;;3.00;;
8622;SDS011;4349;47.552;8.904;2024-02-14T07:35:32;3.40;;;3.20;;
8622;SDS011;4349;47.552;8.904;2024-02-14T07:37:59;3.67;;;3.37;;
8622;SDS011;4349;47.552;8.904;2024-02-14T07:40:27;3.20;;;2.70;;
8622;SDS011;4349;47.552;8.904;2024-02-14T07:42:57;2.47;;;2.30;;
8622;SDS011;4349;47.552;8.904;2024-02-14T07:45:25;3.33;;;2.80;;
8622;SDS011;4349;47.552;8.904;2024-02-14T07:47:52;2.57;;;2.37;;
8622;SDS011;4349;47.552;8.904;2024-02-14T07:50:20;2.30;;;2.20;;
8622;SDS011;4349;47.552;8.904;2024-02-14T07:52:49;3.03;;;2.70;;
8622;SDS011;4349;47.552;8.904;2024-02-14T07:55:17;4.67;;;2.83;;
8622;SDS011;4349;47.552;8.904;2024-02-14T07:57:45;3.23;;;2.90;;
8622;SDS011;4349;47.552;8.904;2024-02-14T08:00:13;3.50;;;3.30;;
8622;SDS011;4349;47.552;8.904;2024-02-14T08:02:45;3.10;;;2.97;;
8622;SDS011;4349;47.552;8.904;2024-02-14T08:05:13;3.43;;;3.30;;
8622;SDS011;4349;47.552;8.904;2024-02-14T08:07:41;3.30;;;3.10;;
8622;SDS011;4349;47.552;8.904;2024-02-14T08:10:10;3.73;;;3.50;;
8622;SDS011;4349;47.552;8.904;2024-02-14T08:12:37;3.90;;;3.60;;
8622;SDS011;4349;47.552;8.904;2024-02-14T08:15:05;4.10;;;3.80;;
8622;SDS011;4349;47.552;8.904;2024-02-14T08:17:33;3.60;;;3.30;;
8622;SDS011;4349;47.552;8.904;2024-02-14T08:20:01;4.07;;;3.83;;
8622;SDS011;4349;47.552;8.904;2024-02-14T08:22:30;3.77;;;3.50;;
8622;SDS011;4349;47.552;8.904;2024-02-14T08:24:58;4.17;;;3.53;;
8622;SDS011;4349;47.552;8.904;2024-02-14T08:27:27;3.00;;;2.70;;
8622;SDS011;4349;47.552;8.904;2024-02-14T08:29:57;2.50;;;2.40;;
8622;SDS011;4349;47.552;8.904;2024-02-14T08:32:25;2.60;;;2.50;;
8622;SDS011;4349;47.552;8.904;2024-02-14T08:34:53;3.00;;;2.70;;
8622;SDS011;4349;47.552;8.904;2024-02-14T08:37:21;3.53;;;3.23;;
8622;SDS011;4349;47.552;8.904;2024-02-14T08:39:51;3.73;;;3.43;;
8622;SDS011;4349;47.552;8.904;2024-02-14T08:42:18;3.23;;;3.03;;
8622;SDS011;4349;47.552;8.904;2024-02-14T08:44:47;3.93;;;3.73;;
8622;SDS011;4349;47.552;8.904;2024-02-14T08:47:15;3.90;;;3.70;;
8622;SDS011;4349;47.552;8.904;2024-02-14T08:49:43;4.90;;;4.50;;
8622;SDS011;4349;47.552;8.904;2024-02-14T08:52:10;7.77;;;5.20;;
8622;SDS011;4349;47.552;8.904;2024-02-14T08:54:38;6.50;;;5.30;;
8622;SDS011;4349;47.552;8.904;2024-02-14T08:57:08;5.27;;;4.87;;
8622;SDS011;4349;47.552;8.904;2024-02-14T08:59:35;5.87;;;5.20;;
8622;SDS011;4349;47.552;8.904;2024-02-14T09:02:04;5.93;;;5.50;;
8622;SDS011;4349;47.552;8.904;2024-02-14T09:04:32;5.23;;;4.80;;
8622;SDS011;4349;47.552;8.904;2024-02-14T09:07:00;5.33;;;4.83;;
8622;SDS011;4349;47.552;8.904;2024-02-14T09:09:27;4.20;;;3.90;;
8622;SDS011;4349;47.552;8.904;2024-02-14T09:11:55;5.20;;;4.80;;
8622;SDS011;4349;47.552;8.904;2024-02-14T09:14:23;4.90;;;4.20;;
8622;SDS011;4349;47.552;8.904;2024-02-14T09:16:52;4.10;;;3.90;;
8622;SDS011;4349;47.552;8.904;2024-02-14T09:19:21;4.50;;;4.20;;
8622;SDS011;4349;47.552;8.904;2024-02-14T09:21:49;4.10;;;3.90;;
8622;SDS011;4349;47.552;8.904;2024-02-14T09:24:16;4.33;;;4.03;;
8622;SDS011;4349;47.552;8.904;2024-02-14T09:26:44;4.00;;;3.80;;
8622;SDS011;4349;47.552;8.904;2024-02-14T09:29:12;4.03;;;3.80;;
8622;SDS011;4349;47.552;8.904;2024-02-14T09:31:41;3.83;;;3.63;;
8622;SDS011;4349;47.552;8.904;2024-02-14T09:34:08;4.10;;;3.73;;
8622;SDS011;4349;47.552;8.904;2024-02-14T09:36:40;4.47;;;4.07;;
8622;SDS011;4349;47.552;8.904;2024-02-14T09:39:07;4.10;;;3.77;;
8622;SDS011;4349;47.552;8.904;2024-02-14T09:41:36;4.07;;;3.33;;
8622;SDS011;4349;47.552;8.904;2024-02-14T09:44:04;3.50;;;3.30;;
8622;SDS011;4349;47.552;8.904;2024-02-14T09:46:31;3.67;;;3.43;;
8622;SDS011;4349;47.552;8.904;2024-02-14T09:48:59;4.30;;;2.93;;
8622;SDS011;4349;47.552;8.904;2024-02-14T09:51:27;2.90;;;2.80;;
8622;SDS011;4349;47.552;8.904;2024-02-14T09:53:57;3.23;;;3.03;;
8622;SDS011;4349;47.552;8.904;2024-02-14T09:56:27;3.37;;;3.17;;
8622;SDS011;4349;47.552;8.904;2024-02-14T09:58:55;3.23;;;3.00;;
8622;SDS011;4349;47.552;8.904;2024-02-14T10:01:23;3.93;;;3.17;;
8622;SDS011;4349;47.552;8.904;2024-02-14T10:03:52;2.80;;;2.70;;
8622;SDS011;4349;47.552;8.904;2024-02-14T10:06:19;3.20;;;2.90;;
8622;SDS011;4349;47.552;8.904;2024-02-14T10:08:47;3.47;;;3.30;;
8622;SDS011;4349;47.552;8.904;2024-02-14T10:11:31;4.90;;;4.40;;
8622;SDS011;4349;47.552;8.904;2024-02-14T10:13:59;3.80;;;3.50;;
8622;SDS011;4349;47.552;8.904;2024-02-14T10:16:30;3.60;;;3.40;;
8622;SDS011;4349;47.552;8.904;2024-02-14T10:18:58;3.97;;;3.70;;
8622;SDS011;4349;47.552;8.904;2024-02-14T10:21:26;3.67;;;3.47;;
8622;SDS011;4349;47.552;8.904;2024-02-14T10:23:55;5.07;;;4.57;;
8622;SDS011;4349;47.552;8.904;2024-02-14T10:26:24;4.70;;;4.40;;
8622;SDS011;4349;47.552;8.904;2024-02-14T10:28:53;4.27;;;3.97;;
8622;SDS011;4349;47.552;8.904;2024-02-14T10:31:24;3.50;;;3.30;;
8622;SDS011;4349;47.552;8.904;2024-02-14T10:33:51;3.60;;;3.40;;
8622;SDS011;4349;47.552;8.904;2024-02-14T10:36:19;3.67;;;3.40;;
8622;SDS011;4349;47.552;8.904;2024-02-14T10:38:47;3.50;;;3.30;;
8622;SDS011;4349;47.552;8.904;2024-02-14T10:41:16;3.67;;;3.27;;
8622;SDS011;4349;47.552;8.904;2024-02-14T10:43:44;4.17;;;3.87;;
8622;SDS011;4349;47.552;8.904;2024-02-14T10:46:15;3.40;;;3.10;;
8622;SDS011;4349;47.552;8.904;2024-02-14T10:48:46;2.97;;;2.80;;
8622;SDS011;4349;47.552;8.904;2024-02-14T10:51:14;3.00;;;2.80;;
8622;SDS011;4349;47.552;8.904;2024-02-14T10:53:43;2.97;;;2.60;;
8622;SDS011;4349;47.552;8.904;2024-02-14T10:56:12;3.97;;;3.00;;
8622;SDS011;4349;47.552;8.904;2024-02-14T10:58:41;2.90;;;2.70;;
8622;SDS011;4349;47.552;8.904;2024-02-14T11:01:10;2.40;;;2.30;;
8622;SDS011;4349;47.552;8.904;2024-02-14T11:03:39;3.53;;;2.53;;
8622;SDS011;4349;47.552;8.904;2024-02-14T11:06:07;2.10;;;2.07;;
8622;SDS011;4349;47.552;8.904;2024-02-14T11:08:35;3.20;;;2.70;;
8622;SDS011;4349;47.552;8.904;2024-02-14T11:11:05;2.63;;;2.53;;
8622;SDS011;4349;47.552;8.904;2024-02-14T11:13:35;3.37;;;2.50;;
8622;SDS011;4349;47.552;8.904;2024-02-14T11:16:03;2.40;;;2.30;;
8622;SDS011;4349;47.552;8.904;2024-02-14T11:18:31;3.37;;;2.80;;
8622;SDS011;4349;47.552;8.904;2024-02-14T11:21:03;2.43;;;2.33;;
8622;SDS011;4349;47.552;8.904;2024-02-14T11:23:31;2.10;;;2.00;;
8622;SDS011;4349;47.552;8.904;2024-02-14T11:25:59;1.70;;;1.60;;
8622;SDS011;4349;47.552;8.904;2024-02-14T11:28:28;1.87;;;1.73;;
8622;SDS011;4349;47.552;8.904;2024-02-14T11:30:58;1.67;;;1.57;;
8622;SDS011;4349;47.552;8.904;2024-02-14T11:33:27;1.40;;;1.30;;
8622;SDS011;4349;47.552;8.904;2024-02-14T11:35:55;1.70;;;1.60;;
8622;SDS011;4349;47.552;8.904;2024-02-14T11:38:24;1.87;;;1.60;;
8622;SDS011;4349;47.552;8.904;2024-02-14T11:40:53;1.70;;;1.60;;
8622;SDS011;4349;47.552;8.904;2024-02-14T11:43:23;1.37;;;1.37;;
8622;SDS011;4349;47.552;8.904;2024-02-14T11:45:51;1.50;;;1.50;;
8622;SDS011;4349;47.552;8.904;2024-02-14T11:48:19;1.63;;;1.40;;
8622;SDS011;4349;47.552;8.904;2024-02-14T11:50:48;1.63;;;1.53;;
8622;SDS011;4349;47.552;8.904;2024-02-14T11:53:16;1.70;;;1.60;;
8622;SDS011;4349;47.552;8.904;2024-02-14T11:55:46;1.60;;;1.50;;
8622;SDS011;4349;47.552;8.904;2024-02-14T11:58:14;2.00;;;1.60;;
8622;SDS011;4349;47.552;8.904;2024-02-14T12:00:43;1.63;;;1.57;;
8622;SDS011;4349;47.552;8.904;2024-02-14T12:03:11;1.50;;;1.50;;
8622;SDS011;4349;47.552;8.904;2024-02-14T12:05:39;1.50;;;1.50;;
8622;SDS011;4349;47.552;8.904;2024-02-14T12:08:08;1.50;;;1.50;;
8622;SDS011;4349;47.552;8.904;2024-02-14T12:10:36;2.03;;;1.57;;
8622;SDS011;4349;47.552;8.904;2024-02-14T12:13:08;1.40;;;1.40;;
8622;SDS011;4349;47.552;8.904;2024-02-14T12:15:38;1.63;;;1.57;;
8622;SDS011;4349;47.552;8.904;2024-02-14T12:18:06;1.60;;;1.50;;
8622;SDS011;4349;47.552;8.904;2024-02-14T12:20:35;1.53;;;1.50;;
8622;SDS011;4349;47.552;8.904;2024-02-14T12:23:03;1.80;;;1.60;;
8622;SDS011;4349;47.552;8.904;2024-02-14T12:25:31;1.63;;;1.53;;
8622;SDS011;4349;47.552;8.904;2024-02-14T12:28:00;1.80;;;1.70;;
8622;SDS011;4349;47.552;8.904;2024-02-14T12:30:42;1.77;;;1.67;;
8622;SDS011;4349;47.552;8.904;2024-02-14T12:33:10;1.83;;;1.73;;
8622;SDS011;4349;47.552;8.904;2024-02-14T12:35:39;1.60;;;1.60;;
8622;SDS011;4349;47.552;8.904;2024-02-14T12:38:08;1.87;;;1.77;;
8622;SDS011;4349;47.552;8.904;2024-02-14T12:40:36;1.50;;;1.50;;
8622;SDS011;4349;47.552;8.904;2024-02-14T12:43:04;1.80;;;1.70;;
8622;SDS011;4349;47.552;8.904;2024-02-14T12:45:34;1.40;;;1.40;;
8622;SDS011;4349;47.552;8.904;2024-02-14T12:48:01;2.07;;;1.70;;
8622;SDS011;4349;47.552;8.904;2024-02-14T12:50:30;1.70;;;1.60;;
8622;SDS011;4349;47.552;8.904;2024-02-14T12:52:57;1.87;;;1.77;;
8622;SDS011;4349;47.552;8.904;2024-02-14T12:55:25;1.60;;;1.60;;
8622;SDS011;4349;47.552;8.904;2024-02-14T12:57:54;2.47;;;1.70;;
8622;SDS011;4349;47.552;8.904;2024-02-14T13:00:22;1.60;;;1.60;;
8622;SDS011;4349;47.552;8.904;2024-02-14T13:02:52;1.90;;;1.80;;
8622;SDS011;4349;47.552;8.904;2024-02-14T13:05:20;1.80;;;1.70;;
8622;SDS011;4349;47.552;8.904;2024-02-14T13:07:47;1.60;;;1.50;;
8622;SDS011;4349;47.552;8.904;2024-02-14T13:10:16;1.80;;;1.70;;
8622;SDS011;4349;47.552;8.904;2024-02-14T13:12:44;2.60;;;1.40;;
8622;SDS011;4349;47.552;8.904;2024-02-14T13:15:12;3.10;;;1.40;;
8622;SDS011;4349;47.552;8.904;2024-02-14T13:17:40;1.40;;;1.30;;
8622;SDS011;4349;47.552;8.904;2024-02-14T13:20:09;1.50;;;1.40;;
8622;SDS011;4349;47.552;8.904;2024-02-14T13:22:37;1.60;;;1.50;;
8622;SDS011;4349;47.552;8.904;2024-02-14T13:25:05;1.53;;;1.50;;
8622;SDS011;4349;47.552;8.904;2024-02-14T13:27:33;1.40;;;1.40;;
8622;SDS011;4349;47.552;8.904;2024-02-14T13:30:00;1.43;;;1.40;;
8622;SDS011;4349;47.552;8.904;2024-02-14T13:32:28;1.50;;;1.37;;
8622;SDS011;4349;47.552;8.904;2024-02-14T13:34:56;1.40;;;1.40;;
8622;SDS011;4349;47.552;8.904;2024-02-14T13:37:25;1.50;;;1.47;;
8622;SDS011;4349;47.552;8.904;2024-02-14T13:39:53;1.40;;;1.40;;
8622;SDS011;4349;47.552;8.904;2024-02-14T13:42:20;1.60;;;1.50;;
8622;SDS011;4349;47.552;8.904;2024-02-14T13:44:48;1.50;;;1.40;;
8622;SDS011;4349;47.552;8.904;2024-02-14T13:47:17;1.50;;;1.50;;
8622;SDS011;4349;47.552;8.904;2024-02-14T13:49:45;1.50;;;1.40;;
8622;SDS011;4349;47.552;8.904;2024-02-14T13:52:13;1.67;;;1.57;;
8622;SDS011;4349;47.552;8.904;2024-02-14T13:54:43;2.63;;;1.40;;
8622;SDS011;4349;47.552;8.904;2024-02-14T13:57:10;1.40;;;1.30;;
8622;SDS011;4349;47.552;8.904;2024-02-14T13:59:39;1.70;;;1.60;;
8622;SDS011;4349;47.552;8.904;2024-02-14T14:02:06;1.70;;;1.60;;
8622;SDS011;4349;47.552;8.904;2024-02-14T14:04:35;1.53;;;1.43;;
8622;SDS011;4349;47.552;8.904;2024-02-14T14:07:04;1.33;;;1.33;;
8622;SDS011;4349;47.552;8.904;2024-02-14T14:09:32;1.70;;;1.60;;
8622;SDS011;4349;47.552;8.904;2024-02-14T14:12:01;1.50;;;1.50;;
8622;SDS011;4349;47.552;8.904;2024-02-14T14:14:28;1.83;;;1.50;;
8622;SDS011;4349;47.552;8.904;2024-02-14T14:16:56;1.50;;;1.40;;
8622;SDS011;4349;47.552;8.904;2024-02-14T14:19:24;1.50;;;1.43;;
8622;SDS011;4349;47.552;8.904;2024-02-14T14:21:52;1.57;;;1.50;;
8622;SDS011;4349;47.552;8.904;2024-02-14T14:24:21;1.57;;;1.47;;
8622;SDS011;4349;47.552;8.904;2024-02-14T14:26:47;1.40;;;1.40;;
8622;SDS011;4349;47.552;8.904;2024-02-14T14:29:18;1.53;;;1.47;;
8622;SDS011;4349;47.552;8.904;2024-02-14T14:31:46;1.70;;;1.60;;
8622;SDS011;4349;47.552;8.904;2024-02-14T14:34:13;1.90;;;1.80;;
8622;SDS011;4349;47.552;8.904;2024-02-14T14:36:42;1.60;;;1.50;;
8622;SDS011;4349;47.552;8.904;2024-02-14T14:39:09;1.67;;;1.60;;
8622;SDS011;4349;47.552;8.904;2024-02-14T14:41:38;1.80;;;1.70;;
8622;SDS011;4349;47.552;8.904;2024-02-14T14:44:05;1.63;;;1.40;;
8622;SDS011;4349;47.552;8.904;2024-02-14T14:46:34;1.53;;;1.43;;
8622;SDS011;4349;47.552;8.904;2024-02-14T14:49:05;1.90;;;1.60;;
8622;SDS011;4349;47.552;8.904;2024-02-14T14:51:33;1.70;;;1.60;;
8622;SDS011;4349;47.552;8.904;2024-02-14T14:54:02;1.60;;;1.50;;
8622;SDS011;4349;47.552;8.904;2024-02-14T14:56:29;1.50;;;1.40;;
8622;SDS011;4349;47.552;8.904;2024-02-14T14:58:57;1.87;;;1.63;;
8622;SDS011;4349;47.552;8.904;2024-02-14T15:01:26;1.60;;;1.50;;
8622;SDS011;4349;47.552;8.904;2024-02-14T15:03:55;2.10;;;2.00;;
8622;SDS011;4349;47.552;8.904;2024-02-14T15:06:24;1.60;;;1.60;;
8622;SDS011;4349;47.552;8.904;2024-02-14T15:08:52;2.40;;;2.30;;
8622;SDS011;4349;47.552;8.904;2024-02-14T15:11:20;1.77;;;1.67;;
8622;SDS011;4349;47.552;8.904;2024-02-14T15:13:48;2.00;;;1.90;;
8622;SDS011;4349;47.552;8.904;2024-02-14T15:16:15;1.90;;;1.80;;
8622;SDS011;4349;47.552;8.904;2024-02-14T15:18:44;2.60;;;1.60;;
8622;SDS011;4349;47.552;8.904;2024-02-14T15:21:14;1.70;;;1.60;;